Minerva Libra — SVAA7 — position and weather

sailwx.info

Track history (hours):
 
Tides and Currents Weather Stations Pressure Air Temp Water Temp Dewpoint Dewpoint Depression Visibility Wind Speed Wind Dir Waves Ship Positions

Minerva Libra

Last reported at 2016-Apr-28 17:33 UTC. Time now 2016-Apr-29 15:57 UTC.
Position N 29°45' W 095°06'.

Length 250 m; draft 11.2 m.

Type: Tanker. MMSI: 240766000.

Date/timePositionNaut miles runAvg speedWind from/ knotsBaromVisibWave heightAir tempDewpointWater temp
2016-Apr-28 17:33N 29°45' W 095°06'3 3.3
2016-Apr-28 16:33N 29°44' W 095°02'6 6.3
2016-Apr-28 15:33N 29°39' W 094°58'9 8.7
2016-Apr-28 14:33N 29°31' W 094°53'10 9.8
2016-Apr-28 13:33N 29°22' W 094°48'15 1.9
2016-Apr-28 05:22N 29°18' W 094°32'239 7.5
2016-Apr-26 21:31N 29°42' W 089°59'1010.3
2016-Apr-26 20:34N 29°52' W 089°56'8 7.8
2016-Apr-26 19:33N 29°56' W 090°03'9 8.6
2016-Apr-26 18:33N 29°57' W 090°13'  
2016-Apr-24 14:08N 30°03' W 090°41'17 0.3
2016-Apr-22 11:15N 29°57' W 090°23'6 8.8
2016-Apr-22 10:31N 29°58' W 090°16'7 7.0
2016-Apr-22 09:33N 29°57' W 090°08'6 6.2
2016-Apr-22 08:34N 29°57' W 090°01'7 7.4
2016-Apr-22 07:33N 29°52' W 089°55'8 8.4
2016-Apr-22 06:33N 29°45' W 090°01'11 9.8
2016-Apr-22 05:29N 29°37' W 089°54'  
Track history (hours):
 
Tides and Currents Weather Stations Pressure Air Temp Water Temp Dewpoint Dewpoint Depression Visibility Wind Speed Wind Dir Waves Ship Positions

Minerva Libra

Last reported at 2016-Apr-28 17:33 UTC. Time now 2016-Apr-29 15:57 UTC.
Position N 29°45' W 095°06'.

Length 250 m; draft 11.2 m.

Type: Tanker. MMSI: 240766000.

Date/timePositionNaut miles runAvg speedWind from/ knotsBaromVisibWave heightAir tempDewpointWater temp
2016-Apr-28 17:33N 29°45' W 095°06'3 3.3
2016-Apr-28 16:33N 29°44' W 095°02'6 6.3
2016-Apr-28 15:33N 29°39' W 094°58'9 8.7
2016-Apr-28 14:33N 29°31' W 094°53'10 9.8
2016-Apr-28 13:33N 29°22' W 094°48'15 1.9
2016-Apr-28 05:22N 29°18' W 094°32'239 7.5
2016-Apr-26 21:31N 29°42' W 089°59'1010.3
2016-Apr-26 20:34N 29°52' W 089°56'8 7.8
2016-Apr-26 19:33N 29°56' W 090°03'9 8.6
2016-Apr-26 18:33N 29°57' W 090°13'  
2016-Apr-24 14:08N 30°03' W 090°41'17 0.3
2016-Apr-22 11:15N 29°57' W 090°23'6 8.8
2016-Apr-22 10:31N 29°58' W 090°16'7 7.0
2016-Apr-22 09:33N 29°57' W 090°08'6 6.2
2016-Apr-22 08:34N 29°57' W 090°01'7 7.4
2016-Apr-22 07:33N 29°52' W 089°55'8 8.4
2016-Apr-22 06:33N 29°45' W 090°01'11 9.8
2016-Apr-22 05:29N 29°37' W 089°54'  

Dump ship's entire track history